Pagrindinis puslapis
METAR-TAF:

METAR-TAF

Oro uostai :

Maringá, Parana, Brazilija

platuma: 23-25S, ilguma: 051-57W, Aukštis: 542 m

Dabartinis oras

Ataskaita buvo paskelbta 2 valandos ir 7 minutes, ne 20:00 UTC
Vėjas 9 kt iš Šiaurės
Temperatūra 36°C
Drėgmė 21%
Slėgis 1011 hPa
Matomumas 10 km arba daugiau
nėra debesų žemiau 1500 m ir nėra kamuolinių lietaus debesų

METAR: SBMG 162000Z 36009KT CAVOK 36/10 Q1011

Laikas: 19:07 (22:07 UTC)


TAF: trūkstamas

Orai ataskaitas ir orų prognozės (METAR, TAF).

turimą stotys yra geltonos ir raudonos taškus žemėlapyje.

Perkelti pele per norėdami pamatyti stoties vardą.

Tada spustelėkite, norėdami matyti oro stebėjimo ir prognozės.

Norėdami pakeisti žemėlapį: spustelėkite ant žalios mygtukų su juodo kryžiaus žemyn,; žalią mygtuką su brūkšneliu, jei norite nutolinti; arba žalių rodyklių gretimoms žemėlapius.


METAR-TAF: